Time;durP1;ratioP1;P1;durP2;ratioP2;P2;SDS_P1;SDS_P2;PMS_P1;PMS_P2;Temp;Humidity;BMP_temperature;BMP_pressure;BME280_temperature;BME280_humidity;BME280_pressure;Samples;Min_cycle;Max_cycle;Signal;HPM_P1;HPM_P2
2022/02/25 00:01:17;;;;;;;25.80;11.20;;;;;;;2.40;59.10;98074.20;106496;1278;22597;-74
2022/02/25 00:03:44;;;;;;;24.50;9.80;;;;;;;2.40;59.06;98074.64;106292;1278;137848;-74
2022/02/25 00:06:11;;;;;;;24.80;9.60;;;;;;;2.42;59.06;98074.03;106828;1278;25427;-74
2022/02/25 00:08:38;;;;;;;20.80;9.20;;;;;;;2.44;59.19;98066.43;106211;1278;22700;-74
2022/02/25 00:11:05;;;;;;;24.20;9.20;;;;;;;2.46;59.78;98054.06;106167;1277;137432;-75
2022/02/25 00:13:32;;;;;;;22.00;9.40;;;;;;;2.48;60.04;98052.63;106046;1280;24226;-75
2022/02/25 00:15:59;;;;;;;19.30;9.00;;;;;;;2.50;59.72;98053.30;105932;1280;138178;-75
2022/02/25 00:18:26;;;;;;;22.70;9.60;;;;;;;2.51;59.78;98052.52;106174;1278;24314;-75
2022/02/25 00:20:54;;;;;;;18.40;8.00;;;;;;;2.52;59.51;98049.70;105905;1280;22583;-75
2022/02/25 00:23:37;;;;;;;19.10;7.60;;;;;;;2.51;59.62;98049.94;105958;1277;137993;-75
2022/02/25 00:26:06;;;;;;;18.70;8.30;;;;;;;2.52;59.71;98054.09;106327;1278;22734;-75
2022/02/25 00:28:46;;;;;;;22.00;9.10;;;;;;;2.52;59.65;98049.66;106681;1277;137310;-75
2022/02/25 00:31:15;;;;;;;24.70;9.00;;;;;;;2.52;59.76;98044.41;106109;1277;22550;-75
2022/02/25 00:33:43;;;;;;;23.90;9.50;;;;;;;2.52;59.68;98041.44;106106;1280;138211;-75
2022/02/25 00:36:10;;;;;;;22.80;10.20;;;;;;;2.50;59.68;98041.96;106125;1280;22576;-75
2022/02/25 00:38:51;;;;;;;22.70;9.90;;;;;;;2.48;59.63;98040.30;105732;1280;23129;-75
2022/02/25 00:41:19;;;;;;;23.40;10.50;;;;;;;2.44;59.73;98040.08;106660;1280;137518;-75
2022/02/25 00:43:46;;;;;;;28.90;11.20;;;;;;;2.41;59.92;98039.09;106255;1280;22580;-75
2022/02/25 00:46:27;;;;;;;28.40;12.00;;;;;;;2.34;59.90;98034.02;105998;1277;137450;-75
2022/02/25 00:48:54;;;;;;;26.10;11.50;;;;;;;2.32;60.04;98034.15;106189;1277;25573;-75
2022/02/25 00:51:21;;;;;;;32.00;11.60;;;;;;;2.29;60.22;98033.14;107071;1279;22637;-75
2022/02/25 00:53:48;;;;;;;26.80;10.90;;;;;;;2.25;60.37;98031.70;105859;1277;137422;-75
2022/02/25 00:56:18;;;;;;;26.20;11.90;;;;;;;2.22;60.39;98030.65;106159;1280;25340;-74
2022/02/25 00:58:48;;;;;;;28.60;11.40;;;;;;;2.18;60.58;98024.71;105736;1280;137580;-75
2022/02/25 01:01:15;;;;;;;22.30;9.70;;;;;;;2.15;60.54;98024.38;105789;1280;24396;-75
2022/02/25 01:03:42;;;;;;;19.50;8.40;;;;;;;2.12;60.57;98019.42;106380;1277;138166;-75
2022/02/25 01:06:10;;;;;;;15.90;6.80;;;;;;;2.10;60.30;98025.23;106299;1277;22600;-75
2022/02/25 01:08:40;;;;;;;19.20;7.70;;;;;;;2.13;60.24;98019.50;105872;1277;22564;-74
2022/02/25 01:11:07;;;;;;;19.10;8.60;;;;;;;2.16;60.20;98019.13;106575;1277;137406;-74
2022/02/25 01:13:35;;;;;;;22.20;8.90;;;;;;;2.16;60.19;98015.80;106083;1277;22557;-74
2022/02/25 01:16:01;;;;;;;20.60;8.30;;;;;;;2.18;60.27;98017.85;106078;1279;137467;-74
2022/02/25 01:18:28;;;;;;;21.50;8.80;;;;;;;2.20;60.11;98010.60;106099;1280;22641;-74
2022/02/25 01:20:55;;;;;;;16.40;7.50;;;;;;;2.21;60.34;98004.98;105802;1280;26516;-74
2022/02/25 01:23:22;;;;;;;18.60;6.70;;;;;;;2.21;60.35;98004.66;105848;1278;137288;-74
2022/02/25 01:25:49;;;;;;;17.00;6.90;;;;;;;2.22;60.05;98005.58;107380;1277;23295;-75
2022/02/25 01:28:16;;;;;;;13.20;6.50;;;;;;;2.25;59.71;97996.60;105921;1277;137914;-74
2022/02/25 01:30:43;;;;;;;17.10;7.60;;;;;;;2.28;59.91;97999.21;105802;1278;24324;-76
2022/02/25 01:33:10;;;;;;;12.80;5.40;;;;;;;2.30;59.92;97998.46;105954;1279;26609;-75
2022/02/25 01:35:40;;;;;;;15.10;6.60;;;;;;;2.33;59.63;97991.73;106456;1279;137418;-74
2022/02/25 01:38:07;;;;;;;14.50;6.30;;;;;;;2.35;59.86;97989.22;105940;1278;26523;-74
2022/02/25 01:40:36;;;;;;;;;;;;;;;2.34;60.03;97983.80;106200;1279;138287;-74
2022/02/25 01:43:04;;;;;;;15.50;5.90;;;;;;;2.32;60.38;97983.89;106006;1278;23299;-74
2022/02/25 01:45:35;;;;;;;16.70;6.70;;;;;;;2.30;60.47;97977.09;105875;1278;137465;-74
2022/02/25 01:48:04;;;;;;;12.50;6.00;;;;;;;2.30;60.63;97980.90;106234;1278;23024;-74
2022/02/25 01:50:31;;;;;;;16.10;6.10;;;;;;;2.29;60.45;97976.64;106269;1277;23625;-74
2022/02/25 01:53:07;;;;;;;13.80;6.10;;;;;;;2.29;60.87;97972.42;106276;1277;137418;-74
2022/02/25 01:55:39;;;;;;;13.50;5.80;;;;;;;2.28;61.04;97974.25;106227;1280;30377;-76
2022/02/25 01:58:07;;;;;;;11.00;4.80;;;;;;;2.28;60.95;97977.48;106218;1280;137483;-74
2022/02/25 02:00:35;;;;;;;13.30;5.40;;;;;;;2.29;60.61;97973.25;106191;1280;22566;-74
2022/02/25 02:03:03;;;;;;;12.80;5.20;;;;;;;2.32;60.38;97975.98;106596;1280;22643;-74
2022/02/25 02:05:33;;;;;;;14.90;6.20;;;;;;;2.33;61.11;97971.86;106392;1277;138534;-75
2022/02/25 02:08:00;;;;;;;13.10;5.70;;;;;;;2.35;61.08;97973.46;106081;1278;22550;-74
2022/02/25 02:10:27;;;;;;;21.80;6.50;;;;;;;2.36;60.90;97973.89;106203;1277;137269;-74
2022/02/25 02:12:54;;;;;;;20.80;8.60;;;;;;;2.35;61.17;97979.21;106346;1278;22572;-74
2022/02/25 02:15:21;;;;;;;20.30;9.40;;;;;;;2.33;61.47;97976.03;105974;1278;24234;-74
2022/02/25 02:17:49;;;;;;;15.20;6.90;;;;;;;2.32;60.98;97972.72;106027;1280;138074;-74
2022/02/25 02:20:16;;;;;;;14.60;6.80;;;;;;;2.33;60.70;97970.86;106092;1280;23276;-74
2022/02/25 02:22:44;;;;;;;16.60;7.10;;;;;;;2.33;60.63;97970.45;106036;1280;137542;-74
2022/02/25 02:25:10;;;;;;;12.90;5.80;;;;;;;2.35;60.21;97972.15;105890;1278;22569;-74
2022/02/25 02:30:23;;;;;;;21.10;10.00;;;;;;;2.40;60.22;97969.17;106082;1277;24256;-75
2022/02/25 02:32:50;;;;;;;26.30;11.40;;;;;;;2.40;60.35;97963.11;106316;1277;24255;-74
2022/02/25 02:35:17;;;;;;;18.50;9.00;;;;;;;2.39;60.24;97961.77;107108;1277;137596;-74
2022/02/25 02:37:45;;;;;;;16.30;7.20;;;;;;;2.38;60.31;97960.13;105909;1280;22637;-74
2022/02/25 02:40:12;;;;;;;15.80;6.80;;;;;;;2.40;60.00;97957.89;107853;1280;138147;-75
2022/02/25 02:42:39;;;;;;;13.60;5.90;;;;;;;2.42;59.97;97963.10;106165;1280;23101;-74
2022/02/25 02:45:06;;;;;;;14.60;5.80;;;;;;;2.43;59.77;97963.14;106207;1278;24281;-74
2022/02/25 02:47:47;;;;;;;19.00;8.20;;;;;;;2.49;59.76;97970.46;106231;1277;137842;-74
2022/02/25 02:50:14;;;;;;;23.10;7.20;;;;;;;2.51;59.72;97965.95;106188;1277;24224;-74
2022/02/25 02:52:41;;;;;;;13.90;5.80;;;;;;;2.52;59.68;97968.79;106042;1277;138133;-74
2022/02/25 02:55:08;;;;;;;15.60;6.60;;;;;;;2.57;59.64;97971.15;106028;1280;22583;-74
2022/02/25 02:57:40;;;;;;;12.20;5.80;;;;;;;2.62;59.65;97967.14;105964;1280;137920;-74
2022/02/25 03:00:08;;;;;;;14.50;5.50;;;;;;;2.65;59.52;97969.16;106013;1280;22561;-74
2022/02/25 03:02:35;;;;;;;12.00;5.30;;;;;;;2.68;59.46;97970.07;106143;1280;24564;-75
2022/02/25 03:05:03;;;;;;;11.40;5.10;;;;;;;2.73;59.59;97974.20;106201;1278;137290;-74
2022/02/25 03:07:29;;;;;;;16.90;7.50;;;;;;;2.76;59.64;97977.73;106110;1278;22556;-74
2022/02/25 03:09:57;;;;;;;17.00;6.70;;;;;;;2.78;59.61;97973.09;106513;1277;138119;-74
2022/02/25 03:12:24;;;;;;;16.60;7.20;;;;;;;2.78;59.34;97974.16;106156;1277;22548;-74
2022/02/25 03:14:52;;;;;;;17.80;7.00;;;;;;;2.77;59.17;97977.44;106520;1277;22553;-74
2022/02/25 03:17:19;;;;;;;17.10;7.70;;;;;;;2.78;59.06;97980.04;106308;1280;137765;-74
2022/02/25 03:20:01;;;;;;;14.80;7.50;;;;;;;2.78;59.24;97980.88;106019;1280;23402;-75
2022/02/25 03:22:28;;;;;;;18.10;7.70;;;;;;;2.77;59.42;97982.44;106075;1280;137299;-75
2022/02/25 03:24:57;;;;;;;19.10;7.80;;;;;;;2.76;59.53;97984.72;106210;1280;22496;-75
2022/02/25 03:27:26;;;;;;;20.50;7.20;;;;;;;2.73;59.80;97987.04;106281;1280;31377;-75
2022/02/25 03:29:53;;;;;;;15.10;6.90;;;;;;;2.71;60.08;97988.57;106601;1277;138416;-75
2022/02/25 03:32:21;;;;;;;18.30;7.10;;;;;;;2.67;60.21;97994.19;106381;1277;23200;-75
2022/02/25 03:34:48;;;;;;;14.50;6.70;;;;;;;2.64;60.43;97996.77;106153;1280;137560;-75
2022/02/25 03:37:16;;;;;;;12.00;5.90;;;;;;;2.63;60.58;97998.35;106149;1280;25363;-75
2022/02/25 03:39:43;;;;;;;15.60;6.40;;;;;;;2.60;60.71;97993.52;105694;1280;138372;-76
2022/02/25 03:42:10;;;;;;;12.60;5.40;;;;;;;2.60;60.92;97999.34;106907;1279;22580;-74
2022/02/25 03:44:37;;;;;;;13.20;5.80;;;;;;;2.58;61.15;98001.13;106439;1280;24435;-74
2022/02/25 03:47:05;;;;;;;13.30;6.20;;;;;;;2.59;61.19;97996.00;106320;1277;137287;-74
2022/02/25 03:49:32;;;;;;;16.40;6.20;;;;;;;2.60;61.46;97993.73;106501;1277;22679;-74
2022/02/25 03:51:59;;;;;;;13.90;6.30;;;;;;;2.60;61.61;97996.77;106041;1277;138841;-73
2022/02/25 03:54:26;;;;;;;12.00;6.10;;;;;;;2.60;61.61;98004.97;106376;1277;25248;-74
2022/02/25 03:56:53;;;;;;;16.40;6.80;;;;;;;2.61;61.86;98011.64;105949;1277;25368;-74
2022/02/25 03:59:20;;;;;;;19.80;7.00;;;;;;;2.64;62.32;98007.21;105878;1280;137421;-74
2022/02/25 04:02:00;;;;;;;16.50;6.30;;;;;;;2.66;62.45;98004.44;106015;1280;24327;-75
2022/02/25 04:04:30;;;;;;;15.70;7.50;;;;;;;2.68;62.61;98002.42;105764;1280;137952;-77
2022/02/25 04:07:00;;;;;;;15.20;6.60;;;;;;;2.69;62.75;98001.63;105834;1280;22570;-74
2022/02/25 04:09:41;;;;;;;16.70;7.40;;;;;;;2.72;62.83;98002.92;105973;1277;137551;-74
2022/02/25 04:12:09;;;;;;;17.20;7.60;;;;;;;2.74;62.98;98009.73;106024;1277;23068;-74
2022/02/25 04:14:36;;;;;;;14.60;7.00;;;;;;;2.77;63.05;98013.34;106378;1278;22560;-74
2022/02/25 04:17:07;;;;;;;15.00;7.50;;;;;;;2.78;63.03;98017.67;106201;1280;137413;-74
2022/02/25 04:19:34;;;;;;;19.60;7.40;;;;;;;2.78;63.01;98017.67;106573;1280;25267;-74
2022/02/25 04:22:05;;;;;;;19.00;7.60;;;;;;;2.76;63.23;98015.58;107863;1279;138267;-75
2022/02/25 04:24:32;;;;;;;15.70;6.50;;;;;;;2.76;63.09;98016.32;107591;1280;22616;-75
2022/02/25 04:26:59;;;;;;;14.10;6.70;;;;;;;2.75;63.20;98016.77;106830;1277;23019;-74
2022/02/25 04:29:26;;;;;;;17.20;7.50;;;;;;;2.77;63.25;98011.77;106262;1277;138018;-74
2022/02/25 04:31:53;;;;;;;15.10;6.60;;;;;;;2.77;63.31;98016.36;106035;1277;22565;-74
2022/02/25 04:34:20;;;;;;;20.30;8.20;;;;;;;2.76;63.29;98017.52;105781;1278;140237;-74
2022/02/25 04:36:47;;;;;;;18.30;7.80;;;;;;;2.74;63.24;98021.58;106378;1277;22572;-74
2022/02/25 04:39:28;;;;;;;14.50;6.30;;;;;;;2.72;63.32;98020.67;106116;1280;25418;-74
2022/02/25 04:41:55;;;;;;;15.30;6.70;;;;;;;2.71;63.59;98024.67;106488;1280;137287;-75
2022/02/25 04:44:22;;;;;;;12.60;5.30;;;;;;;2.73;63.62;98023.77;106342;1280;24387;-75
2022/02/25 04:46:49;;;;;;;13.60;5.40;;;;;;;2.77;63.64;98034.27;105864;1280;137606;-74
2022/02/25 04:49:16;;;;;;;12.50;5.70;;;;;;;2.82;63.72;98036.59;106142;1277;24299;-74
2022/02/25 04:51:43;;;;;;;9.50;4.80;;;;;;;2.90;63.70;98038.99;105969;1277;25260;-74
2022/02/25 04:54:10;;;;;;;11.60;5.90;;;;;;;2.97;63.53;98041.44;106079;1277;137042;-74
2022/02/25 04:56:40;;;;;;;12.50;5.70;;;;;;;3.03;63.50;98045.99;106018;1277;26513;-74
2022/02/25 04:59:07;;;;;;;13.70;5.40;;;;;;;3.10;63.37;98047.79;105812;1280;137662;-74
2022/02/25 05:01:34;;;;;;;9.40;5.70;;;;;;;3.15;63.32;98052.20;106205;1280;25362;-74
2022/02/25 05:04:02;;;;;;;12.40;5.50;;;;;;;3.22;63.27;98056.59;105968;1280;138358;-74
2022/02/25 05:06:29;;;;;;;11.10;5.00;;;;;;;3.27;63.08;98054.48;106035;1280;23692;-74
2022/02/25 05:08:56;;;;;;;12.00;5.20;;;;;;;3.31;63.02;98061.01;106395;1277;22569;-75
2022/02/25 05:11:23;;;;;;;9.10;5.80;;;;;;;3.36;62.94;98059.02;105748;1278;137628;-75
2022/02/25 05:13:50;;;;;;;13.60;7.10;;;;;;;3.39;62.94;98063.74;106245;1278;22837;-75
2022/02/25 05:21:48;;;;;;;27.30;8.90;;;;;;;3.46;62.79;98088.95;106786;1280;22829;-75
2022/02/25 05:24:15;;;;;;;18.40;7.10;;;;;;;3.46;62.94;98095.12;105904;1280;137267;-75
2022/02/25 05:26:43;;;;;;;14.20;5.10;;;;;;;3.48;62.80;98104.23;106134;1279;24313;-74
2022/02/25 05:29:10;;;;;;;15.60;5.10;;;;;;;3.50;62.84;98110.58;105898;1277;137275;-74
2022/02/25 05:31:38;;;;;;;11.80;5.60;;;;;;;3.52;62.93;98118.23;106200;1277;24315;-74
2022/02/25 05:34:05;;;;;;;10.40;4.70;;;;;;;3.54;63.03;98129.45;105798;1278;137979;-74
2022/02/25 05:36:32;;;;;;;11.60;5.40;;;;;;;3.55;63.26;98130.32;105982;1278;22548;-74
2022/02/25 05:38:59;;;;;;;13.40;5.50;;;;;;;3.55;63.10;98137.73;106036;1278;25264;-74
2022/02/25 05:41:26;;;;;;;13.70;5.90;;;;;;;3.54;63.16;98144.53;105681;1280;137355;-74
2022/02/25 05:43:53;;;;;;;12.40;5.20;;;;;;;3.53;63.55;98151.98;106070;1280;24222;-75
2022/02/25 05:46:20;;;;;;;16.30;6.00;;;;;;;3.48;63.98;98148.77;105885;1280;137812;-74
2022/02/25 05:48:47;;;;;;;19.30;5.90;;;;;;;3.49;64.04;98159.15;105966;1278;22897;-74
2022/02/25 05:51:15;;;;;;;13.70;5.80;;;;;;;3.54;63.98;98162.79;106005;1278;22667;-74
2022/02/25 05:53:42;;;;;;;15.20;6.40;;;;;;;3.60;64.08;98169.74;105727;1278;137262;-74
2022/02/25 05:56:09;;;;;;;13.20;5.40;;;;;;;3.67;64.33;98168.27;106128;1277;24302;-76
2022/02/25 05:58:36;;;;;;;13.30;5.00;;;;;;;3.75;64.47;98169.79;105797;1278;137714;-74
2022/02/25 06:01:03;;;;;;;15.40;5.30;;;;;;;3.85;64.38;98174.88;105776;1279;25330;-74
2022/02/25 06:03:30;;;;;;;13.00;5.60;;;;;;;3.92;64.37;98178.73;105899;1280;22592;-74
2022/02/25 06:05:56;;;;;;;11.00;5.20;;;;;;;3.99;64.27;98181.63;106375;1280;137825;-75
2022/02/25 06:08:23;;;;;;;15.30;6.50;;;;;;;4.07;63.99;98175.43;105866;1280;23431;-74
2022/02/25 06:10:50;;;;;;;10.20;5.90;;;;;;;4.13;64.29;98175.79;106087;1277;137436;-74
2022/02/25 06:13:17;;;;;;;17.30;7.50;;;;;;;4.18;64.15;98176.61;106373;1276;23294;-74
2022/02/25 06:15:45;;;;;;;19.80;8.00;;;;;;;4.23;64.05;98177.38;105829;1280;22569;-74
2022/02/25 06:18:13;;;;;;;24.60;9.00;;;;;;;4.27;63.92;98180.52;105770;1278;137379;-74
2022/02/25 06:20:41;;;;;;;25.80;10.60;;;;;;;4.30;63.99;98186.79;105874;1280;22582;-74
2022/02/25 06:23:08;;;;;;;20.20;9.10;;;;;;;4.34;64.04;98197.05;105578;1280;137717;-74
2022/02/25 06:25:49;;;;;;;14.80;6.70;;;;;;;4.35;63.98;98205.02;105787;1280;25319;-74
2022/02/25 06:28:16;;;;;;;18.70;8.70;;;;;;;4.35;64.01;98208.41;105762;1280;137585;-74
2022/02/25 06:30:43;;;;;;;20.50;9.10;;;;;;;4.34;64.10;98211.73;105777;1280;24313;-74
2022/02/25 06:33:11;;;;;;;22.90;10.30;;;;;;;4.31;64.27;98216.10;105944;1277;25270;-74
2022/02/25 06:35:38;;;;;;;19.60;9.20;;;;;;;4.29;64.45;98223.04;105950;1277;137559;-74
2022/02/25 06:38:05;;;;;;;20.80;9.50;;;;;;;4.26;64.46;98227.05;106034;1277;22621;-74
2022/02/25 06:40:32;;;;;;;19.70;8.80;;;;;;;4.22;64.77;98239.51;105789;1280;137904;-76
2022/02/25 06:42:59;;;;;;;19.50;8.00;;;;;;;4.18;64.84;98239.08;105872;1280;24228;-75
2022/02/25 06:45:26;;;;;;;16.50;7.60;;;;;;;4.17;65.09;98241.34;105776;1280;22572;-75
2022/02/25 06:47:53;;;;;;;19.00;6.80;;;;;;;4.20;65.21;98248.76;105715;1280;137764;-75
2022/02/25 06:50:20;;;;;;;16.40;6.90;;;;;;;4.25;65.73;98260.85;105780;1278;24085;-75
2022/02/25 06:52:47;;;;;;;20.40;7.20;;;;;;;4.29;65.83;98273.24;105896;1278;137352;-75
2022/02/25 06:55:16;;;;;;;16.50;7.30;;;;;;;4.32;65.96;98281.45;106016;1277;24313;-75
2022/02/25 06:57:44;;;;;;;15.80;7.10;;;;;;;4.34;66.07;98288.46;106001;1280;22714;-74
2022/02/25 07:00:16;;;;;;;12.10;6.60;;;;;;;4.35;66.44;98294.60;105875;1280;138364;-74
2022/02/25 07:02:43;;;;;;;8.20;3.10;;;;;;;4.35;68.29;98316.41;106133;1279;24837;-74
2022/02/25 07:05:10;;;;;;;7.40;3.80;;;;;;;4.28;70.10;98330.64;105978;1280;137352;-74
2022/02/25 07:07:37;;;;;;;8.10;3.70;;;;;;;4.23;70.70;98345.86;106279;1280;24258;-74
2022/02/25 07:10:06;;;;;;;6.30;3.10;;;;;;;4.17;71.12;98351.48;105935;1277;137979;-74
2022/02/25 07:12:33;;;;;;;7.80;3.50;;;;;;;4.11;72.50;98365.42;106198;1277;22557;-74
2022/02/25 07:15:03;;;;;;;4.90;3.10;;;;;;;4.04;73.13;98374.21;106178;1277;22547;-74
2022/02/25 07:17:31;;;;;;;1.30;1.20;;;;;;;3.89;75.17;98405.27;106080;1277;137241;-74
2022/02/25 07:20:12;;;;;;;3.80;0.70;;;;;;;3.56;76.52;98428.22;106040;1280;22572;-74
2022/02/25 07:22:41;;;;;;;0.90;0.80;;;;;;;3.20;77.08;98432.55;106049;1280;138382;-74
2022/02/25 07:25:08;;;;;;;1.80;0.80;;;;;;;2.86;78.25;98443.10;106062;1280;22547;-74
2022/02/25 07:27:35;;;;;;;1.20;0.70;;;;;;;2.61;78.76;98449.35;105883;1280;22753;-74
2022/02/25 07:30:03;;;;;;;1.20;1.10;;;;;;;2.42;79.58;98458.73;105943;1280;137790;-74
2022/02/25 07:32:30;;;;;;;2.00;1.10;;;;;;;2.30;79.81;98451.30;106126;1277;22698;-74
2022/02/25 07:34:58;;;;;;;0.80;0.70;;;;;;;2.24;80.38;98450.34;105962;1277;137559;-74
2022/02/25 07:37:25;;;;;;;3.00;1.10;;;;;;;2.23;80.60;98450.66;106060;1277;22691;-74
2022/02/25 07:39:52;;;;;;;2.10;1.10;;;;;;;2.27;80.78;98452.69;105890;1280;23967;-74
2022/02/25 07:42:19;;;;;;;1.70;1.10;;;;;;;2.32;80.97;98452.48;105661;1277;340741;-74
2022/02/25 07:44:46;;;;;;;3.20;1.50;;;;;;;2.37;80.91;98451.92;106063;1280;25333;-74
2022/02/25 07:47:13;;;;;;;2.00;1.10;;;;;;;2.48;80.79;98452.42;106058;1280;138019;-74
2022/02/25 07:49:39;;;;;;;1.90;1.20;;;;;;;2.60;80.76;98448.06;105764;1280;23294;-74
2022/02/25 07:52:06;;;;;;;3.30;2.00;;;;;;;2.69;80.70;98458.60;105956;1278;137501;-75
2022/02/25 07:54:33;;;;;;;4.50;2.30;;;;;;;2.75;80.71;98467.59;106008;1280;22567;-74
2022/02/25 07:57:01;;;;;;;2.70;2.50;;;;;;;2.80;80.50;98474.37;105975;1277;22566;-74
2022/02/25 07:59:28;;;;;;;3.40;2.10;;;;;;;2.84;80.45;98479.02;105917;1277;137482;-74
2022/02/25 08:01:55;;;;;;;4.00;2.60;;;;;;;2.92;80.51;98481.29;105911;1280;22711;-74
2022/02/25 08:04:22;;;;;;;3.10;1.90;;;;;;;2.96;80.41;98483.10;105925;1280;137922;-74
2022/02/25 08:06:51;;;;;;;3.70;2.10;;;;;;;3.00;80.38;98481.84;105942;1280;25257;-74
2022/02/25 08:09:21;;;;;;;3.00;2.00;;;;;;;3.02;80.31;98490.73;105821;1279;23982;-74
2022/02/25 08:11:49;;;;;;;4.20;2.60;;;;;;;2.97;80.12;98493.75;105732;1278;137143;-74
2022/02/25 08:14:16;;;;;;;5.90;3.40;;;;;;;2.95;80.28;98500.47;106487;1277;22557;-74
2022/02/25 08:16:43;;;;;;;9.20;4.50;;;;;;;2.96;80.38;98498.11;105852;1277;137801;-74
2022/02/25 08:19:11;;;;;;;8.40;4.10;;;;;;;2.99;80.50;98499.26;105977;1278;24286;-74
2022/02/25 08:21:38;;;;;;;5.60;3.20;;;;;;;3.03;80.56;98504.84;106072;1277;23979;-74
2022/02/25 08:24:05;;;;;;;8.50;4.10;;;;;;;3.05;80.34;98509.79;105831;1280;137179;-74
2022/02/25 08:26:32;;;;;;;8.40;5.00;;;;;;;3.04;80.19;98514.69;105942;1280;24343;-77
2022/02/25 08:29:00;;;;;;;8.30;4.70;;;;;;;3.04;80.35;98523.64;105930;1280;137134;-74
2022/02/25 08:31:28;;;;;;;6.80;4.00;;;;;;;3.04;80.49;98527.44;106115;1277;24273;-74
2022/02/25 08:33:55;;;;;;;4.50;3.10;;;;;;;3.05;80.64;98529.81;105965;1277;25388;-74
2022/02/25 08:36:23;;;;;;;11.20;6.70;;;;;;;3.04;80.45;98531.58;106030;1277;137443;-74
2022/02/25 08:38:54;;;;;;;12.30;6.80;;;;;;;3.03;80.55;98533.32;105964;1277;22551;-74
2022/02/25 08:41:28;;;;;;;9.40;5.30;;;;;;;2.99;80.75;98536.88;105981;1277;137287;-75
2022/02/25 08:43:55;;;;;;;8.80;5.50;;;;;;;2.94;80.81;98538.37;105806;1280;23909;-74
2022/02/25 08:46:22;;;;;;;6.60;5.30;;;;;;;2.95;80.94;98539.90;105760;1280;138664;-74
2022/02/25 08:48:50;;;;;;;8.90;6.00;;;;;;;2.94;81.01;98543.05;105967;1280;22554;-74
2022/02/25 08:51:43;;;;;;;9.00;6.90;;;;;;;2.94;81.24;98542.76;106431;1280;23352;-74
2022/02/25 08:54:11;;;;;;;11.10;8.20;;;;;;;2.93;81.34;98548.45;106057;1277;138321;-74
2022/02/25 08:56:38;;;;;;;9.90;6.80;;;;;;;2.92;81.54;98551.63;106028;1278;22714;-74
2022/02/25 08:59:05;;;;;;;9.70;6.70;;;;;;;2.88;81.51;98549.00;106070;1277;137931;-74
2022/02/25 09:01:32;;;;;;;11.50;6.60;;;;;;;2.89;81.63;98553.19;106090;1277;25382;-74
2022/02/25 09:04:01;;;;;;;11.20;8.00;;;;;;;2.88;81.64;98561.25;105903;1280;25705;-73
2022/02/25 09:06:29;;;;;;;14.00;6.50;;;;;;;2.88;81.93;98566.42;105953;1280;138140;-74
2022/02/25 09:08:57;;;;;;;14.70;9.20;;;;;;;2.86;82.20;98566.69;106129;1280;25422;-73
2022/02/25 09:11:24;;;;;;;11.10;6.80;;;;;;;2.85;82.38;98574.00;106236;1280;137944;-73
2022/02/25 09:13:51;;;;;;;11.10;8.00;;;;;;;2.83;82.38;98574.33;106023;1278;25247;-73
2022/02/25 09:16:18;;;;;;;7.20;5.20;;;;;;;2.85;82.21;98581.98;105854;1278;138678;-73
2022/02/25 09:18:45;;;;;;;8.20;5.90;;;;;;;2.87;81.86;98579.41;106038;1278;22651;-74
2022/02/25 09:21:13;;;;;;;9.00;6.70;;;;;;;2.92;81.91;98583.30;106017;1280;22741;-74
2022/02/25 09:23:40;;;;;;;9.60;7.40;;;;;;;2.97;81.79;98580.94;105746;1280;138127;-74
2022/02/25 09:26:07;;;;;;;16.50;7.80;;;;;;;3.02;81.93;98584.17;105957;1280;22561;-74
2022/02/25 09:28:35;;;;;;;9.30;6.40;;;;;;;3.11;81.75;98589.05;105923;1280;138703;-74
2022/02/25 09:31:02;;;;;;;6.20;5.00;;;;;;;3.18;81.32;98588.61;105979;1280;23928;-74
2022/02/25 09:33:29;;;;;;;9.00;4.80;;;;;;;3.24;80.86;98589.20;105775;1280;22559;-74
2022/02/25 09:36:20;;;;;;;6.20;4.00;;;;;;;3.28;80.40;98590.40;105936;1278;138169;-74
2022/02/25 09:38:47;;;;;;;5.50;3.90;;;;;;;3.31;79.82;98596.17;105657;1277;24323;-74
2022/02/25 09:41:16;;;;;;;7.40;4.80;;;;;;;3.33;79.43;98601.52;105836;1279;137403;-74
2022/02/25 09:43:56;;;;;;;8.20;4.20;;;;;;;3.34;79.07;98599.55;106052;1280;22570;-74
2022/02/25 09:46:24;;;;;;;6.60;3.90;;;;;;;3.38;79.13;98605.14;105995;1280;137781;-74
2022/02/25 09:48:51;;;;;;;16.50;4.20;;;;;;;3.45;79.01;98609.67;105933;1280;22609;-74
2022/02/25 09:51:18;;;;;;;9.00;4.90;;;;;;;3.50;78.81;98610.98;105768;1280;22642;-74
2022/02/25 09:53:45;;;;;;;12.20;6.50;;;;;;;3.53;78.79;98616.34;105445;1280;137286;-74
2022/02/25 09:56:12;;;;;;;8.80;5.10;;;;;;;3.56;78.61;98620.47;106024;1278;22615;-74
2022/02/25 09:58:39;;;;;;;13.80;5.30;;;;;;;3.55;78.25;98625.44;105985;1278;138307;-76
2022/02/25 10:01:06;;;;;;;13.80;6.10;;;;;;;3.55;78.14;98624.19;105966;1280;25377;-76
2022/02/25 10:03:35;;;;;;;7.60;4.60;;;;;;;3.55;78.02;98624.03;106054;1279;22784;-76
2022/02/25 10:06:09;;;;;;;8.00;4.60;;;;;;;3.54;77.80;98622.36;105902;1280;138111;-76
2022/02/25 10:08:39;;;;;;;9.00;4.70;;;;;;;3.53;77.80;98627.86;106406;1280;24266;-76
2022/02/25 10:11:11;;;;;;;8.70;6.00;;;;;;;3.52;77.39;98627.73;105959;1278;137175;-75
2022/02/25 10:13:38;;;;;;;10.60;6.20;;;;;;;3.54;77.77;98627.66;105850;1278;24375;-76
2022/02/25 10:16:10;;;;;;;9.80;7.40;;;;;;;3.61;77.94;98624.36;106342;1277;22548;-76
2022/02/25 10:18:38;;;;;;;10.80;7.30;;;;;;;3.71;78.02;98622.19;106024;1278;138023;-78
2022/02/25 10:21:13;;;;;;;11.40;6.80;;;;;;;3.83;77.85;98621.36;106131;1278;24379;-77
2022/02/25 10:23:43;;;;;;;12.30;7.70;;;;;;;3.93;77.43;98622.51;105769;1278;137539;-77
2022/02/25 10:26:14;;;;;;;25.60;23.00;;;;;;;4.03;77.68;98621.73;106144;1280;23430;-76
2022/02/25 10:28:50;;;;;;;11.80;7.70;;;;;;;4.15;77.43;98618.48;106020;1280;138184;-78
2022/02/25 10:31:23;;;;;;;9.50;6.80;;;;;;;4.27;77.40;98620.19;106174;1278;22643;-75
2022/02/25 10:34:04;;;;;;;11.00;5.80;;;;;;;4.31;76.94;98628.71;106238;1278;22587;-74
2022/02/25 10:36:41;;;;;;;8.80;5.60;;;;;;;4.36;75.81;98630.11;105989;1278;137838;-74
2022/02/25 10:39:08;;;;;;;7.00;4.30;;;;;;;4.40;75.10;98625.44;106144;1280;23953;-74
2022/02/25 10:41:35;;;;;;;5.30;3.50;;;;;;;4.42;74.72;98627.36;106204;1280;137882;-74
2022/02/25 10:44:03;;;;;;;5.80;3.60;;;;;;;4.43;73.49;98628.35;106199;1278;22582;-74
2022/02/25 10:46:30;;;;;;;7.10;4.90;;;;;;;4.44;73.63;98625.95;106119;1280;137829;-74
2022/02/25 10:49:08;;;;;;;7.90;4.50;;;;;;;4.48;73.85;98624.59;106106;1280;22573;-74
2022/02/25 10:51:37;;;;;;;9.40;4.20;;;;;;;4.48;73.21;98626.38;106044;1280;22633;-74
2022/02/25 10:54:04;;;;;;;7.40;4.20;;;;;;;4.50;73.14;98625.43;105832;1280;138085;-74
2022/02/25 10:56:50;;;;;;;4.20;3.10;;;;;;;4.53;72.56;98628.09;106325;1280;23935;-74
2022/02/25 10:59:17;;;;;;;6.10;3.50;;;;;;;4.55;72.44;98633.13;106002;1280;137625;-74
2022/02/25 11:02:29;;;;;;;4.60;3.20;;;;;;;4.57;71.76;98636.91;106241;1280;22798;-74
2022/02/25 11:05:19;;;;;;;5.40;3.40;;;;;;;4.58;71.38;98642.02;106155;1280;137478;-74
2022/02/25 11:07:49;;;;;;;5.80;3.40;;;;;;;4.59;71.51;98640.65;106103;1280;25331;-74
2022/02/25 11:10:19;;;;;;;7.90;5.30;;;;;;;4.60;72.00;98643.10;106246;1280;137403;-73
2022/02/25 11:12:48;;;;;;;7.10;5.60;;;;;;;4.65;71.59;98643.91;106253;1280;23060;-74
2022/02/25 11:15:17;;;;;;;;;;;;;;;4.70;71.40;98644.00;106329;1278;22591;-74
2022/02/25 11:17:45;;;;;;;7.90;5.70;;;;;;;4.77;71.37;98642.90;105934;1280;124995;-75
2022/02/25 11:20:14;;;;;;;13.20;7.70;;;;;;;4.85;71.24;98642.23;106139;1280;22645;-74
2022/02/25 11:22:50;;;;;;;14.20;8.30;;;;;;;4.93;72.60;98641.25;106281;1278;137620;-74
2022/02/25 11:25:18;;;;;;;17.10;9.70;;;;;;;5.02;73.42;98637.45;106076;1280;25421;-74
2022/02/25 11:27:46;;;;;;;14.40;9.60;;;;;;;5.07;73.76;98637.80;106061;1280;22535;-74
2022/02/25 11:30:17;;;;;;;12.70;7.70;;;;;;;5.11;73.63;98637.02;106373;1280;137996;-75
2022/02/25 11:32:51;;;;;;;13.50;9.10;;;;;;;5.23;73.73;98633.88;106078;1280;24261;-74
2022/02/25 11:35:21;;;;;;;13.30;7.40;;;;;;;5.41;73.22;98628.64;105794;1280;138046;-76
2022/02/25 11:37:51;;;;;;;12.30;8.30;;;;;;;5.50;72.07;98626.78;106253;1278;22570;-74
2022/02/25 11:40:56;;;;;;;12.40;8.40;;;;;;;5.67;72.35;98624.98;106428;1278;137734;-74